sensor_id;sensor_type;location;lat;lon;timestamp;temperature;humidity
18882;DHT22;9573;50.948;11.600;2024-01-27T00:01:08;4.20;99.90
18882;DHT22;9573;50.948;11.600;2024-01-27T00:03:35;4.30;99.90
18882;DHT22;9573;50.948;11.600;2024-01-27T00:06:02;4.30;99.90
18882;DHT22;9573;50.948;11.600;2024-01-27T00:08:31;4.20;99.90
18882;DHT22;9573;50.948;11.600;2024-01-27T00:10:58;4.20;99.90
18882;DHT22;9573;50.948;11.600;2024-01-27T00:13:25;4.10;99.90
18882;DHT22;9573;50.948;11.600;2024-01-27T00:15:52;4.10;99.90
18882;DHT22;9573;50.948;11.600;2024-01-27T00:18:20;4.10;99.90
18882;DHT22;9573;50.948;11.600;2024-01-27T00:20:47;4.10;99.90
18882;DHT22;9573;50.948;11.600;2024-01-27T00:23:14;4.10;99.90
18882;DHT22;9573;50.948;11.600;2024-01-27T00:25:43;4.10;99.90
18882;DHT22;9573;50.948;11.600;2024-01-27T00:28:10;4.20;99.90
18882;DHT22;9573;50.948;11.600;2024-01-27T00:30:37;4.20;99.90
18882;DHT22;9573;50.948;11.600;2024-01-27T00:33:04;4.20;99.90
18882;DHT22;9573;50.948;11.600;2024-01-27T00:35:32;4.30;99.90
18882;DHT22;9573;50.948;11.600;2024-01-27T00:37:59;4.40;99.90
18882;DHT22;9573;50.948;11.600;2024-01-27T00:40:26;4.50;99.90
18882;DHT22;9573;50.948;11.600;2024-01-27T00:42:54;4.70;99.90
18882;DHT22;9573;50.948;11.600;2024-01-27T00:45:22;4.80;99.90
18882;DHT22;9573;50.948;11.600;2024-01-27T00:47:49;4.90;99.90
18882;DHT22;9573;50.948;11.600;2024-01-27T00:50:16;4.80;99.90
18882;DHT22;9573;50.948;11.600;2024-01-27T00:52:43;4.60;99.90
18882;DHT22;9573;50.948;11.600;2024-01-27T00:55:11;4.40;99.90
18882;DHT22;9573;50.948;11.600;2024-01-27T00:57:38;4.30;99.90
18882;DHT22;9573;50.948;11.600;2024-01-27T01:00:08;4.20;99.90
18882;DHT22;9573;50.948;11.600;2024-01-27T01:02:37;4.10;99.90
18882;DHT22;9573;50.948;11.600;2024-01-27T01:05:06;4.00;99.90
18882;DHT22;9573;50.948;11.600;2024-01-27T01:07:34;3.90;99.90
18882;DHT22;9573;50.948;11.600;2024-01-27T01:10:01;3.80;99.90
18882;DHT22;9573;50.948;11.600;2024-01-27T01:12:29;3.80;99.90
18882;DHT22;9573;50.948;11.600;2024-01-27T01:14:57;3.70;99.90
18882;DHT22;9573;50.948;11.600;2024-01-27T01:17:25;3.70;99.90
18882;DHT22;9573;50.948;11.600;2024-01-27T01:19:52;3.70;99.90
18882;DHT22;9573;50.948;11.600;2024-01-27T01:22:19;3.70;99.90
18882;DHT22;9573;50.948;11.600;2024-01-27T01:24:47;3.80;99.90
18882;DHT22;9573;50.948;11.600;2024-01-27T01:27:14;3.70;99.90
18882;DHT22;9573;50.948;11.600;2024-01-27T01:29:44;3.70;99.90
18882;DHT22;9573;50.948;11.600;2024-01-27T01:32:11;3.80;99.90
18882;DHT22;9573;50.948;11.600;2024-01-27T01:34:40;3.90;99.90
18882;DHT22;9573;50.948;11.600;2024-01-27T01:37:07;3.80;99.90
18882;DHT22;9573;50.948;11.600;2024-01-27T01:39:34;3.80;99.90
18882;DHT22;9573;50.948;11.600;2024-01-27T01:42:01;3.90;99.90
18882;DHT22;9573;50.948;11.600;2024-01-27T01:44:30;3.90;99.90
18882;DHT22;9573;50.948;11.600;2024-01-27T01:46:58;3.90;99.90
18882;DHT22;9573;50.948;11.600;2024-01-27T01:49:26;4.00;99.90
18882;DHT22;9573;50.948;11.600;2024-01-27T01:51:54;4.10;99.90
18882;DHT22;9573;50.948;11.600;2024-01-27T01:54:22;4.20;99.90
18882;DHT22;9573;50.948;11.600;2024-01-27T01:56:53;4.30;99.90
18882;DHT22;9573;50.948;11.600;2024-01-27T01:59:21;4.50;99.90
18882;DHT22;9573;50.948;11.600;2024-01-27T02:01:48;4.50;99.90
18882;DHT22;9573;50.948;11.600;2024-01-27T02:04:16;4.60;99.90
18882;DHT22;9573;50.948;11.600;2024-01-27T02:06:43;4.70;99.90
18882;DHT22;9573;50.948;11.600;2024-01-27T02:09:11;4.70;99.90
18882;DHT22;9573;50.948;11.600;2024-01-27T02:11:39;4.70;99.90
18882;DHT22;9573;50.948;11.600;2024-01-27T02:14:06;4.70;99.90
18882;DHT22;9573;50.948;11.600;2024-01-27T02:16:34;4.60;99.90
18882;DHT22;9573;50.948;11.600;2024-01-27T02:19:01;4.60;99.90
18882;DHT22;9573;50.948;11.600;2024-01-27T02:21:28;4.40;99.90
18882;DHT22;9573;50.948;11.600;2024-01-27T02:23:55;4.30;99.90
18882;DHT22;9573;50.948;11.600;2024-01-27T02:26:23;4.10;99.90
18882;DHT22;9573;50.948;11.600;2024-01-27T02:28:51;4.30;99.90
18882;DHT22;9573;50.948;11.600;2024-01-27T02:31:18;3.70;99.90
18882;DHT22;9573;50.948;11.600;2024-01-27T02:33:45;3.40;99.90
18882;DHT22;9573;50.948;11.600;2024-01-27T02:36:12;3.20;99.90
18882;DHT22;9573;50.948;11.600;2024-01-27T02:38:39;3.10;99.90
18882;DHT22;9573;50.948;11.600;2024-01-27T02:41:06;3.00;99.90
18882;DHT22;9573;50.948;11.600;2024-01-27T02:43:35;3.00;99.90
18882;DHT22;9573;50.948;11.600;2024-01-27T02:46:02;3.00;99.90
18882;DHT22;9573;50.948;11.600;2024-01-27T02:48:30;2.90;99.90
18882;DHT22;9573;50.948;11.600;2024-01-27T02:50:57;2.90;99.90
18882;DHT22;9573;50.948;11.600;2024-01-27T02:53:24;3.00;99.90
18882;DHT22;9573;50.948;11.600;2024-01-27T02:55:52;3.00;99.90
18882;DHT22;9573;50.948;11.600;2024-01-27T02:58:19;3.00;99.90
18882;DHT22;9573;50.948;11.600;2024-01-27T03:00:47;3.10;99.90
18882;DHT22;9573;50.948;11.600;2024-01-27T03:03:14;3.10;99.90
18882;DHT22;9573;50.948;11.600;2024-01-27T03:05:42;3.20;99.90
18882;DHT22;9573;50.948;11.600;2024-01-27T03:08:09;3.20;99.90
18882;DHT22;9573;50.948;11.600;2024-01-27T03:10:36;3.30;99.90
18882;DHT22;9573;50.948;11.600;2024-01-27T03:13:03;3.30;99.90
18882;DHT22;9573;50.948;11.600;2024-01-27T03:15:30;3.30;99.90
18882;DHT22;9573;50.948;11.600;2024-01-27T03:17:59;3.20;99.90
18882;DHT22;9573;50.948;11.600;2024-01-27T03:20:26;3.20;99.90
18882;DHT22;9573;50.948;11.600;2024-01-27T03:22:53;3.20;99.90
18882;DHT22;9573;50.948;11.600;2024-01-27T03:25:20;3.10;99.90
18882;DHT22;9573;50.948;11.600;2024-01-27T03:27:48;2.90;99.90
18882;DHT22;9573;50.948;11.600;2024-01-27T03:30:15;2.90;99.90
18882;DHT22;9573;50.948;11.600;2024-01-27T03:32:42;2.80;99.90
18882;DHT22;9573;50.948;11.600;2024-01-27T03:35:10;2.80;99.90
18882;DHT22;9573;50.948;11.600;2024-01-27T03:37:37;2.70;99.90
18882;DHT22;9573;50.948;11.600;2024-01-27T03:40:06;2.70;99.90
18882;DHT22;9573;50.948;11.600;2024-01-27T03:42:34;2.60;99.90
18882;DHT22;9573;50.948;11.600;2024-01-27T03:45:01;2.50;99.90
18882;DHT22;9573;50.948;11.600;2024-01-27T03:47:29;2.50;99.90
18882;DHT22;9573;50.948;11.600;2024-01-27T03:49:56;2.60;99.90
18882;DHT22;9573;50.948;11.600;2024-01-27T03:52:24;2.60;99.90
18882;DHT22;9573;50.948;11.600;2024-01-27T03:54:51;2.50;99.90
18882;DHT22;9573;50.948;11.600;2024-01-27T03:57:19;2.50;99.90
18882;DHT22;9573;50.948;11.600;2024-01-27T03:59:46;2.60;99.90
18882;DHT22;9573;50.948;11.600;2024-01-27T04:02:13;2.60;99.90
18882;DHT22;9573;50.948;11.600;2024-01-27T04:04:41;2.50;99.90
18882;DHT22;9573;50.948;11.600;2024-01-27T04:07:08;2.50;99.90
18882;DHT22;9573;50.948;11.600;2024-01-27T04:09:36;2.50;99.90
18882;DHT22;9573;50.948;11.600;2024-01-27T04:12:03;2.50;99.90
18882;DHT22;9573;50.948;11.600;2024-01-27T04:14:31;2.50;99.90
18882;DHT22;9573;50.948;11.600;2024-01-27T04:16:58;2.60;99.90
18882;DHT22;9573;50.948;11.600;2024-01-27T04:19:26;2.60;99.90
18882;DHT22;9573;50.948;11.600;2024-01-27T04:21:53;2.60;99.90
18882;DHT22;9573;50.948;11.600;2024-01-27T04:24:20;2.60;99.90
18882;DHT22;9573;50.948;11.600;2024-01-27T04:26:48;2.60;99.90
18882;DHT22;9573;50.948;11.600;2024-01-27T04:29:15;2.60;99.90
18882;DHT22;9573;50.948;11.600;2024-01-27T04:31:42;2.50;99.90
18882;DHT22;9573;50.948;11.600;2024-01-27T04:34:10;2.60;99.90
18882;DHT22;9573;50.948;11.600;2024-01-27T04:36:37;2.60;99.90
18882;DHT22;9573;50.948;11.600;2024-01-27T04:39:04;2.70;99.90
18882;DHT22;9573;50.948;11.600;2024-01-27T04:41:31;2.70;99.90
18882;DHT22;9573;50.948;11.600;2024-01-27T04:43:59;2.70;99.90
18882;DHT22;9573;50.948;11.600;2024-01-27T04:46:27;2.80;99.90
18882;DHT22;9573;50.948;11.600;2024-01-27T04:48:54;2.80;99.90
18882;DHT22;9573;50.948;11.600;2024-01-27T04:51:21;2.80;99.90
18882;DHT22;9573;50.948;11.600;2024-01-27T04:53:49;2.80;99.90
18882;DHT22;9573;50.948;11.600;2024-01-27T04:56:16;2.80;99.90
18882;DHT22;9573;50.948;11.600;2024-01-27T04:58:44;2.70;99.90
18882;DHT22;9573;50.948;11.600;2024-01-27T05:01:12;2.70;99.90
18882;DHT22;9573;50.948;11.600;2024-01-27T05:03:39;2.80;99.90
18882;DHT22;9573;50.948;11.600;2024-01-27T05:06:08;2.80;99.90
18882;DHT22;9573;50.948;11.600;2024-01-27T05:08:36;2.70;99.90
18882;DHT22;9573;50.948;11.600;2024-01-27T05:11:04;2.70;99.90
18882;DHT22;9573;50.948;11.600;2024-01-27T05:13:36;2.70;99.90
18882;DHT22;9573;50.948;11.600;2024-01-27T05:16:05;2.80;99.90
18882;DHT22;9573;50.948;11.600;2024-01-27T05:18:34;2.80;99.90
18882;DHT22;9573;50.948;11.600;2024-01-27T05:21:02;2.80;99.90
18882;DHT22;9573;50.948;11.600;2024-01-27T05:23:29;2.70;99.90
18882;DHT22;9573;50.948;11.600;2024-01-27T05:25:56;2.80;99.90
18882;DHT22;9573;50.948;11.600;2024-01-27T05:28:23;2.70;99.90
18882;DHT22;9573;50.948;11.600;2024-01-27T05:30:50;2.70;99.90
18882;DHT22;9573;50.948;11.600;2024-01-27T05:33:18;2.70;99.90
18882;DHT22;9573;50.948;11.600;2024-01-27T05:35:46;2.70;99.90
18882;DHT22;9573;50.948;11.600;2024-01-27T05:38:13;2.70;99.90
18882;DHT22;9573;50.948;11.600;2024-01-27T05:40:41;2.70;99.90
18882;DHT22;9573;50.948;11.600;2024-01-27T05:43:11;2.60;99.90
18882;DHT22;9573;50.948;11.600;2024-01-27T05:45:38;2.50;99.90
18882;DHT22;9573;50.948;11.600;2024-01-27T05:48:06;2.50;99.90
18882;DHT22;9573;50.948;11.600;2024-01-27T05:50:34;2.40;99.90
18882;DHT22;9573;50.948;11.600;2024-01-27T05:53:03;2.40;99.90
18882;DHT22;9573;50.948;11.600;2024-01-27T05:55:30;2.30;99.90
18882;DHT22;9573;50.948;11.600;2024-01-27T05:57:59;2.30;99.90
18882;DHT22;9573;50.948;11.600;2024-01-27T06:00:27;2.20;99.90
18882;DHT22;9573;50.948;11.600;2024-01-27T06:02:54;2.20;99.90
18882;DHT22;9573;50.948;11.600;2024-01-27T06:05:21;2.10;99.90
18882;DHT22;9573;50.948;11.600;2024-01-27T06:07:48;2.10;99.90
18882;DHT22;9573;50.948;11.600;2024-01-27T06:10:17;2.10;99.90
18882;DHT22;9573;50.948;11.600;2024-01-27T06:12:44;2.20;99.90
18882;DHT22;9573;50.948;11.600;2024-01-27T06:15:12;2.20;99.90
18882;DHT22;9573;50.948;11.600;2024-01-27T06:17:41;2.20;99.90
18882;DHT22;9573;50.948;11.600;2024-01-27T06:20:08;2.20;99.90
18882;DHT22;9573;50.948;11.600;2024-01-27T06:22:36;2.20;99.90
18882;DHT22;9573;50.948;11.600;2024-01-27T06:25:05;2.10;99.90
18882;DHT22;9573;50.948;11.600;2024-01-27T06:27:35;2.10;99.90
18882;DHT22;9573;50.948;11.600;2024-01-27T06:30:03;2.10;99.90
18882;DHT22;9573;50.948;11.600;2024-01-27T06:32:35;2.10;99.90
18882;DHT22;9573;50.948;11.600;2024-01-27T06:35:02;2.10;99.90
18882;DHT22;9573;50.948;11.600;2024-01-27T06:37:30;2.00;99.90
18882;DHT22;9573;50.948;11.600;2024-01-27T06:39:58;1.90;99.90
18882;DHT22;9573;50.948;11.600;2024-01-27T06:42:25;2.00;99.90
18882;DHT22;9573;50.948;11.600;2024-01-27T06:44:53;1.90;99.90
18882;DHT22;9573;50.948;11.600;2024-01-27T06:47:20;2.00;99.90
18882;DHT22;9573;50.948;11.600;2024-01-27T06:49:47;1.90;99.90
18882;DHT22;9573;50.948;11.600;2024-01-27T06:52:15;1.90;99.90
18882;DHT22;9573;50.948;11.600;2024-01-27T06:54:42;1.90;99.90
18882;DHT22;9573;50.948;11.600;2024-01-27T06:57:18;1.90;99.90
18882;DHT22;9573;50.948;11.600;2024-01-27T06:59:47;1.90;99.90
18882;DHT22;9573;50.948;11.600;2024-01-27T07:02:19;1.90;99.90
18882;DHT22;9573;50.948;11.600;2024-01-27T07:04:49;1.90;99.90
18882;DHT22;9573;50.948;11.600;2024-01-27T07:07:18;1.90;99.90
18882;DHT22;9573;50.948;11.600;2024-01-27T07:09:45;1.90;99.90
18882;DHT22;9573;50.948;11.600;2024-01-27T07:12:13;1.90;99.90
18882;DHT22;9573;50.948;11.600;2024-01-27T07:14:40;2.10;99.90
18882;DHT22;9573;50.948;11.600;2024-01-27T07:17:10;2.10;99.90
18882;DHT22;9573;50.948;11.600;2024-01-27T07:19:39;2.10;99.90
18882;DHT22;9573;50.948;11.600;2024-01-27T07:22:06;2.20;99.90
18882;DHT22;9573;50.948;11.600;2024-01-27T07:24:34;2.30;99.90
18882;DHT22;9573;50.948;11.600;2024-01-27T07:27:01;2.40;99.90
18882;DHT22;9573;50.948;11.600;2024-01-27T07:29:30;2.50;99.90
18882;DHT22;9573;50.948;11.600;2024-01-27T07:31:57;2.60;99.90
18882;DHT22;9573;50.948;11.600;2024-01-27T07:34:25;2.80;99.90
18882;DHT22;9573;50.948;11.600;2024-01-27T07:36:53;3.00;99.90
18882;DHT22;9573;50.948;11.600;2024-01-27T07:39:21;3.10;99.90
18882;DHT22;9573;50.948;11.600;2024-01-27T07:41:48;3.20;99.90
18882;DHT22;9573;50.948;11.600;2024-01-27T07:44:18;3.30;99.90
18882;DHT22;9573;50.948;11.600;2024-01-27T07:46:45;3.40;99.90
18882;DHT22;9573;50.948;11.600;2024-01-27T07:49:13;3.50;99.90
18882;DHT22;9573;50.948;11.600;2024-01-27T07:51:40;3.70;99.90
18882;DHT22;9573;50.948;11.600;2024-01-27T07:54:09;5.00;99.90
18882;DHT22;9573;50.948;11.600;2024-01-27T07:56:37;6.50;99.90
18882;DHT22;9573;50.948;11.600;2024-01-27T07:59:04;7.30;99.90
18882;DHT22;9573;50.948;11.600;2024-01-27T08:01:31;8.20;99.90
18882;DHT22;9573;50.948;11.600;2024-01-27T08:03:58;8.60;99.90
18882;DHT22;9573;50.948;11.600;2024-01-27T08:06:28;9.10;99.90
18882;DHT22;9573;50.948;11.600;2024-01-27T08:08:56;9.50;99.90
18882;DHT22;9573;50.948;11.600;2024-01-27T08:11:24;9.30;99.90
18882;DHT22;9573;50.948;11.600;2024-01-27T08:13:52;8.90;99.90
18882;DHT22;9573;50.948;11.600;2024-01-27T08:16:19;8.60;99.90
18882;DHT22;9573;50.948;11.600;2024-01-27T08:18:47;8.30;99.90
18882;DHT22;9573;50.948;11.600;2024-01-27T08:21:14;8.20;99.90
18882;DHT22;9573;50.948;11.600;2024-01-27T08:23:41;8.80;99.90
18882;DHT22;9573;50.948;11.600;2024-01-27T08:26:08;9.60;99.90
18882;DHT22;9573;50.948;11.600;2024-01-27T08:28:37;9.60;99.90
18882;DHT22;9573;50.948;11.600;2024-01-27T08:31:04;9.40;99.90
18882;DHT22;9573;50.948;11.600;2024-01-27T08:33:32;9.80;99.90
18882;DHT22;9573;50.948;11.600;2024-01-27T08:36:03;11.30;99.90
18882;DHT22;9573;50.948;11.600;2024-01-27T08:38:30;12.70;99.90
18882;DHT22;9573;50.948;11.600;2024-01-27T08:40:57;14.20;99.90
18882;DHT22;9573;50.948;11.600;2024-01-27T08:43:24;15.00;99.90
18882;DHT22;9573;50.948;11.600;2024-01-27T08:45:53;16.10;99.90
18882;DHT22;9573;50.948;11.600;2024-01-27T08:48:23;16.60;96.30
18882;DHT22;9573;50.948;11.600;2024-01-27T08:50:50;16.90;94.90
18882;DHT22;9573;50.948;11.600;2024-01-27T08:53:18;17.70;92.70
18882;DHT22;9573;50.948;11.600;2024-01-27T08:55:45;17.90;90.20
18882;DHT22;9573;50.948;11.600;2024-01-27T08:58:12;17.70;90.20
18882;DHT22;9573;50.948;11.600;2024-01-27T09:00:39;17.70;88.10
18882;DHT22;9573;50.948;11.600;2024-01-27T09:03:08;17.90;87.40
18882;DHT22;9573;50.948;11.600;2024-01-27T09:05:35;18.60;84.90
18882;DHT22;9573;50.948;11.600;2024-01-27T09:08:02;18.90;81.60
18882;DHT22;9573;50.948;11.600;2024-01-27T09:10:30;18.00;82.70
18882;DHT22;9573;50.948;11.600;2024-01-27T09:12:57;18.00;82.60
18882;DHT22;9573;50.948;11.600;2024-01-27T09:15:24;18.60;81.50
18882;DHT22;9573;50.948;11.600;2024-01-27T09:17:51;18.40;80.20
18882;DHT22;9573;50.948;11.600;2024-01-27T09:20:20;17.70;80.80
18882;DHT22;9573;50.948;11.600;2024-01-27T09:22:47;16.30;86.50
18882;DHT22;9573;50.948;11.600;2024-01-27T09:25:17;16.60;85.60
18882;DHT22;9573;50.948;11.600;2024-01-27T09:27:44;16.70;85.00
18882;DHT22;9573;50.948;11.600;2024-01-27T09:30:12;16.60;84.70
18882;DHT22;9573;50.948;11.600;2024-01-27T09:32:39;16.50;85.50
18882;DHT22;9573;50.948;11.600;2024-01-27T09:35:07;16.50;85.40
18882;DHT22;9573;50.948;11.600;2024-01-27T09:37:36;15.70;87.10
18882;DHT22;9573;50.948;11.600;2024-01-27T09:40:04;15.50;88.20
18882;DHT22;9573;50.948;11.600;2024-01-27T09:42:33;15.70;87.20
18882;DHT22;9573;50.948;11.600;2024-01-27T09:45:02;15.20;88.80
18882;DHT22;9573;50.948;11.600;2024-01-27T09:47:30;14.80;90.10
18882;DHT22;9573;50.948;11.600;2024-01-27T09:49:59;14.40;90.60
18882;DHT22;9573;50.948;11.600;2024-01-27T09:52:27;14.30;91.40
18882;DHT22;9573;50.948;11.600;2024-01-27T09:54:55;14.10;91.60
18882;DHT22;9573;50.948;11.600;2024-01-27T09:57:23;14.20;91.40
18882;DHT22;9573;50.948;11.600;2024-01-27T09:59:51;15.00;90.30
18882;DHT22;9573;50.948;11.600;2024-01-27T10:02:19;15.50;89.10
18882;DHT22;9573;50.948;11.600;2024-01-27T10:04:49;15.30;89.30
18882;DHT22;9573;50.948;11.600;2024-01-27T10:07:17;15.20;90.00
18882;DHT22;9573;50.948;11.600;2024-01-27T10:09:48;15.20;89.10
18882;DHT22;9573;50.948;11.600;2024-01-27T10:12:18;15.40;88.50
18882;DHT22;9573;50.948;11.600;2024-01-27T10:14:48;15.00;89.30
18882;DHT22;9573;50.948;11.600;2024-01-27T10:17:24;15.60;88.70
18882;DHT22;9573;50.948;11.600;2024-01-27T10:20:00;16.20;86.90
18882;DHT22;9573;50.948;11.600;2024-01-27T10:22:29;16.70;85.40
18882;DHT22;9573;50.948;11.600;2024-01-27T10:25:05;17.00;84.20
18882;DHT22;9573;50.948;11.600;2024-01-27T10:27:39;17.50;81.60
18882;DHT22;9573;50.948;11.600;2024-01-27T10:30:15;17.30;82.60
18882;DHT22;9573;50.948;11.600;2024-01-27T10:32:54;17.50;82.70
18882;DHT22;9573;50.948;11.600;2024-01-27T10:35:22;17.60;79.40
18882;DHT22;9573;50.948;11.600;2024-01-27T10:37:51;17.60;80.20
18882;DHT22;9573;50.948;11.600;2024-01-27T10:40:20;17.30;81.20
18882;DHT22;9573;50.948;11.600;2024-01-27T10:43:03;17.40;80.80
18882;DHT22;9573;50.948;11.600;2024-01-27T10:45:37;16.80;81.30
18882;DHT22;9573;50.948;11.600;2024-01-27T10:48:09;16.90;83.00
18882;DHT22;9573;50.948;11.600;2024-01-27T10:50:39;16.60;82.50
18882;DHT22;9573;50.948;11.600;2024-01-27T10:53:09;17.30;81.60
18882;DHT22;9573;50.948;11.600;2024-01-27T10:55:47;17.20;81.80
18882;DHT22;9573;50.948;11.600;2024-01-27T10:58:17;17.30;81.50
18882;DHT22;9573;50.948;11.600;2024-01-27T11:00:46;17.70;79.90
18882;DHT22;9573;50.948;11.600;2024-01-27T11:03:15;18.00;79.00
18882;DHT22;9573;50.948;11.600;2024-01-27T11:05:51;17.50;80.30
18882;DHT22;9573;50.948;11.600;2024-01-27T11:08:20;17.60;78.90
18882;DHT22;9573;50.948;11.600;2024-01-27T11:10:53;17.60;79.40
18882;DHT22;9573;50.948;11.600;2024-01-27T11:13:23;17.60;78.80
18882;DHT22;9573;50.948;11.600;2024-01-27T11:15:57;17.00;80.00
18882;DHT22;9573;50.948;11.600;2024-01-27T11:18:26;17.00;80.70
18882;DHT22;9573;50.948;11.600;2024-01-27T11:20:54;17.40;79.30
18882;DHT22;9573;50.948;11.600;2024-01-27T11:23:31;17.60;78.50
18882;DHT22;9573;50.948;11.600;2024-01-27T11:26:04;17.20;80.70
18882;DHT22;9573;50.948;11.600;2024-01-27T11:28:33;17.70;79.40
18882;DHT22;9573;50.948;11.600;2024-01-27T11:31:04;18.00;77.50
18882;DHT22;9573;50.948;11.600;2024-01-27T11:33:32;18.00;77.60
18882;DHT22;9573;50.948;11.600;2024-01-27T11:36:03;17.80;77.00
18882;DHT22;9573;50.948;11.600;2024-01-27T11:38:32;17.50;76.90
18882;DHT22;9573;50.948;11.600;2024-01-27T11:41:00;16.70;79.00
18882;DHT22;9573;50.948;11.600;2024-01-27T11:43:28;17.10;79.70
18882;DHT22;9573;50.948;11.600;2024-01-27T11:46:00;17.40;78.10
18882;DHT22;9573;50.948;11.600;2024-01-27T11:48:28;17.70;77.70
18882;DHT22;9573;50.948;11.600;2024-01-27T11:51:06;17.90;76.60
18882;DHT22;9573;50.948;11.600;2024-01-27T11:53:35;18.00;76.70
18882;DHT22;9573;50.948;11.600;2024-01-27T11:56:03;18.10;76.70
18882;DHT22;9573;50.948;11.600;2024-01-27T11:58:34;17.90;75.70
18882;DHT22;9573;50.948;11.600;2024-01-27T12:01:02;18.20;75.20
18882;DHT22;9573;50.948;11.600;2024-01-27T12:03:30;17.80;75.60
18882;DHT22;9573;50.948;11.600;2024-01-27T12:05:57;17.50;75.70
18882;DHT22;9573;50.948;11.600;2024-01-27T12:08:26;17.70;76.40
18882;DHT22;9573;50.948;11.600;2024-01-27T12:10:54;17.90;76.10
18882;DHT22;9573;50.948;11.600;2024-01-27T12:13:22;17.80;76.00
18882;DHT22;9573;50.948;11.600;2024-01-27T12:15:52;18.10;76.60
18882;DHT22;9573;50.948;11.600;2024-01-27T12:18:22;17.60;76.30
18882;DHT22;9573;50.948;11.600;2024-01-27T12:20:55;17.40;76.20
18882;DHT22;9573;50.948;11.600;2024-01-27T12:23:23;17.10;77.60
18882;DHT22;9573;50.948;11.600;2024-01-27T12:25:52;17.00;77.90
18882;DHT22;9573;50.948;11.600;2024-01-27T12:28:22;16.80;78.40
18882;DHT22;9573;50.948;11.600;2024-01-27T12:30:50;16.50;78.90
18882;DHT22;9573;50.948;11.600;2024-01-27T12:33:18;16.50;79.10
18882;DHT22;9573;50.948;11.600;2024-01-27T12:35:51;16.30;80.30
18882;DHT22;9573;50.948;11.600;2024-01-27T12:38:20;16.60;79.00
18882;DHT22;9573;50.948;11.600;2024-01-27T12:40:50;16.10;78.80
18882;DHT22;9573;50.948;11.600;2024-01-27T12:43:17;16.10;79.70
18882;DHT22;9573;50.948;11.600;2024-01-27T12:45:44;16.10;79.10
18882;DHT22;9573;50.948;11.600;2024-01-27T12:48:11;15.80;79.90
18882;DHT22;9573;50.948;11.600;2024-01-27T12:50:39;15.60;81.40
18882;DHT22;9573;50.948;11.600;2024-01-27T12:53:07;15.50;81.50
18882;DHT22;9573;50.948;11.600;2024-01-27T12:55:34;15.20;81.90
18882;DHT22;9573;50.948;11.600;2024-01-27T12:58:02;15.00;81.90
18882;DHT22;9573;50.948;11.600;2024-01-27T13:00:29;15.00;82.00
18882;DHT22;9573;50.948;11.600;2024-01-27T13:02:56;14.80;82.90
18882;DHT22;9573;50.948;11.600;2024-01-27T13:05:24;14.60;84.00
18882;DHT22;9573;50.948;11.600;2024-01-27T13:07:52;14.60;83.70
18882;DHT22;9573;50.948;11.600;2024-01-27T13:10:21;14.60;83.80
18882;DHT22;9573;50.948;11.600;2024-01-27T13:12:48;14.60;83.70
18882;DHT22;9573;50.948;11.600;2024-01-27T13:15:19;14.60;84.10
18882;DHT22;9573;50.948;11.600;2024-01-27T13:17:48;14.60;84.50
18882;DHT22;9573;50.948;11.600;2024-01-27T13:20:16;14.60;84.20
18882;DHT22;9573;50.948;11.600;2024-01-27T13:22:44;14.60;84.70
18882;DHT22;9573;50.948;11.600;2024-01-27T13:25:21;14.60;84.70
18882;DHT22;9573;50.948;11.600;2024-01-27T13:27:49;14.70;84.80
18882;DHT22;9573;50.948;11.600;2024-01-27T13:30:24;14.30;85.00
18882;DHT22;9573;50.948;11.600;2024-01-27T13:32:53;14.40;85.70
18882;DHT22;9573;50.948;11.600;2024-01-27T13:35:20;14.20;85.20
18882;DHT22;9573;50.948;11.600;2024-01-27T13:37:48;14.00;85.60
18882;DHT22;9573;50.948;11.600;2024-01-27T13:40:16;14.00;86.40
18882;DHT22;9573;50.948;11.600;2024-01-27T13:42:45;13.60;87.40
18882;DHT22;9573;50.948;11.600;2024-01-27T13:45:13;13.30;88.50
18882;DHT22;9573;50.948;11.600;2024-01-27T13:47:41;13.00;89.20
18882;DHT22;9573;50.948;11.600;2024-01-27T13:50:12;12.80;89.60
18882;DHT22;9573;50.948;11.600;2024-01-27T13:52:40;12.70;90.20
18882;DHT22;9573;50.948;11.600;2024-01-27T13:55:10;12.60;90.20
18882;DHT22;9573;50.948;11.600;2024-01-27T13:57:39;12.50;90.30
18882;DHT22;9573;50.948;11.600;2024-01-27T14:00:09;12.30;90.50
18882;DHT22;9573;50.948;11.600;2024-01-27T14:02:38;12.20;90.80
18882;DHT22;9573;50.948;11.600;2024-01-27T14:05:06;12.10;91.10
18882;DHT22;9573;50.948;11.600;2024-01-27T14:07:35;12.10;91.00
18882;DHT22;9573;50.948;11.600;2024-01-27T14:10:03;12.10;90.90
18882;DHT22;9573;50.948;11.600;2024-01-27T14:12:35;12.00;90.70
18882;DHT22;9573;50.948;11.600;2024-01-27T14:15:08;12.10;90.70
18882;DHT22;9573;50.948;11.600;2024-01-27T14:17:36;12.00;90.60
18882;DHT22;9573;50.948;11.600;2024-01-27T14:20:06;11.80;90.80
18882;DHT22;9573;50.948;11.600;2024-01-27T14:22:37;11.80;91.00
18882;DHT22;9573;50.948;11.600;2024-01-27T14:25:06;11.70;90.90
18882;DHT22;9573;50.948;11.600;2024-01-27T14:27:37;11.40;91.20
18882;DHT22;9573;50.948;11.600;2024-01-27T14:30:05;11.20;91.40
18882;DHT22;9573;50.948;11.600;2024-01-27T14:32:36;11.10;91.60
18882;DHT22;9573;50.948;11.600;2024-01-27T14:35:07;11.20;91.70
18882;DHT22;9573;50.948;11.600;2024-01-27T14:37:55;10.80;92.00
18882;DHT22;9573;50.948;11.600;2024-01-27T14:40:23;10.30;92.80
18882;DHT22;9573;50.948;11.600;2024-01-27T14:42:51;9.90;93.00
18882;DHT22;9573;50.948;11.600;2024-01-27T14:45:20;9.50;94.00
18882;DHT22;9573;50.948;11.600;2024-01-27T14:47:48;9.20;94.40
18882;DHT22;9573;50.948;11.600;2024-01-27T14:50:15;8.90;95.00
18882;DHT22;9573;50.948;11.600;2024-01-27T14:52:43;8.70;95.50
18882;DHT22;9573;50.948;11.600;2024-01-27T14:55:11;8.50;95.90
18882;DHT22;9573;50.948;11.600;2024-01-27T14:57:41;8.30;96.30
18882;DHT22;9573;50.948;11.600;2024-01-27T15:00:09;8.20;96.50
18882;DHT22;9573;50.948;11.600;2024-01-27T15:02:41;8.10;96.30
18882;DHT22;9573;50.948;11.600;2024-01-27T15:05:10;8.00;96.70
18882;DHT22;9573;50.948;11.600;2024-01-27T15:07:38;7.80;97.10
18882;DHT22;9573;50.948;11.600;2024-01-27T15:10:06;7.70;97.70
18882;DHT22;9573;50.948;11.600;2024-01-27T15:12:34;7.60;98.20
18882;DHT22;9573;50.948;11.600;2024-01-27T15:15:02;7.50;97.90
18882;DHT22;9573;50.948;11.600;2024-01-27T15:17:33;7.40;98.00
18882;DHT22;9573;50.948;11.600;2024-01-27T15:20:02;7.40;98.00
18882;DHT22;9573;50.948;11.600;2024-01-27T15:22:32;7.20;98.30
18882;DHT22;9573;50.948;11.600;2024-01-27T15:25:01;7.10;98.80
18882;DHT22;9573;50.948;11.600;2024-01-27T15:27:31;7.00;99.10
18882;DHT22;9573;50.948;11.600;2024-01-27T15:30:02;6.80;99.30
18882;DHT22;9573;50.948;11.600;2024-01-27T15:32:31;7.20;99.60
18882;DHT22;9573;50.948;11.600;2024-01-27T15:34:59;6.60;99.90
18882;DHT22;9573;50.948;11.600;2024-01-27T15:37:28;6.50;99.90
18882;DHT22;9573;50.948;11.600;2024-01-27T15:39:55;6.40;99.90
18882;DHT22;9573;50.948;11.600;2024-01-27T15:42:22;6.20;99.90
18882;DHT22;9573;50.948;11.600;2024-01-27T15:44:49;6.00;99.90
18882;DHT22;9573;50.948;11.600;2024-01-27T15:47:17;5.90;99.90